sensor_id;sensor_type;location;lat;lon;timestamp;pressure;altitude;pressure_sealevel;temperature;humidity
15646;BME280;7922;43.622;1.476;2023-01-29T00:01:06;101086.88;;;2.38;84.18
15646;BME280;7922;43.622;1.476;2023-01-29T00:03:32;100973.06;;;1.77;84.76
15646;BME280;7922;43.622;1.476;2023-01-29T00:05:57;100970.50;;;1.81;84.40
15646;BME280;7922;43.622;1.476;2023-01-29T00:08:22;101124.63;;;2.70;84.24
15646;BME280;7922;43.622;1.476;2023-01-29T00:10:48;101077.28;;;2.39;84.60
15646;BME280;7922;43.622;1.476;2023-01-29T00:13:13;101070.34;;;2.41;85.17
15646;BME280;7922;43.622;1.476;2023-01-29T00:15:38;101066.81;;;2.33;84.26
15646;BME280;7922;43.622;1.476;2023-01-29T00:18:04;100967.00;;;1.79;84.68
15646;BME280;7922;43.622;1.476;2023-01-29T00:20:29;101117.63;;;2.65;84.73
15646;BME280;7922;43.622;1.476;2023-01-29T00:22:55;101094.03;;;2.58;84.64
15646;BME280;7922;43.622;1.476;2023-01-29T00:25:20;101012.56;;;2.07;84.06
15646;BME280;7922;43.622;1.476;2023-01-29T00:27:45;101083.47;;;2.50;84.64
15646;BME280;7922;43.622;1.476;2023-01-29T00:30:11;101022.22;;;2.16;84.99
15646;BME280;7922;43.622;1.476;2023-01-29T00:32:36;101110.59;;;2.60;84.87
15646;BME280;7922;43.622;1.476;2023-01-29T00:35:02;100999.44;;;2.01;84.82
15646;BME280;7922;43.622;1.476;2023-01-29T00:37:27;100919.75;;;1.52;84.53
15646;BME280;7922;43.622;1.476;2023-01-29T00:39:52;101005.53;;;2.00;84.84
15646;BME280;7922;43.622;1.476;2023-01-29T00:42:18;101072.94;;;2.36;85.06
15646;BME280;7922;43.622;1.476;2023-01-29T00:44:43;101102.72;;;2.57;85.20
15646;BME280;7922;43.622;1.476;2023-01-29T00:47:08;100949.50;;;1.69;85.05
15646;BME280;7922;43.622;1.476;2023-01-29T00:49:33;101036.19;;;2.20;85.09
15646;BME280;7922;43.622;1.476;2023-01-29T00:51:59;101078.25;;;2.50;85.48
15646;BME280;7922;43.622;1.476;2023-01-29T00:54:24;101044.91;;;2.22;85.33
15646;BME280;7922;43.622;1.476;2023-01-29T00:56:49;101062.44;;;2.33;85.11
15646;BME280;7922;43.622;1.476;2023-01-29T00:59:14;101010.75;;;2.00;85.64
15646;BME280;7922;43.622;1.476;2023-01-29T01:01:40;101041.38;;;2.16;85.80
15646;BME280;7922;43.622;1.476;2023-01-29T01:04:05;101047.53;;;2.25;85.68
15646;BME280;7922;43.622;1.476;2023-01-29T01:06:31;101064.16;;;2.30;85.90
15646;BME280;7922;43.622;1.476;2023-01-29T01:08:56;101044.81;;;2.11;86.38
15646;BME280;7922;43.622;1.476;2023-01-29T01:11:22;101063.25;;;2.26;86.42
15646;BME280;7922;43.622;1.476;2023-01-29T01:13:47;100935.47;;;1.59;86.21
15646;BME280;7922;43.622;1.476;2023-01-29T01:16:15;101076.38;;;2.35;85.96
15646;BME280;7922;43.622;1.476;2023-01-29T01:18:41;100955.56;;;1.63;86.04
15646;BME280;7922;43.622;1.476;2023-01-29T01:21:07;101013.31;;;1.92;86.33
15646;BME280;7922;43.622;1.476;2023-01-29T01:23:32;101078.97;;;2.31;86.19
15646;BME280;7922;43.622;1.476;2023-01-29T01:25:57;100918.72;;;1.36;85.99
15646;BME280;7922;43.622;1.476;2023-01-29T01:28:23;100951.19;;;1.61;86.09
15646;BME280;7922;43.622;1.476;2023-01-29T01:30:48;100973.06;;;1.77;85.90
15646;BME280;7922;43.622;1.476;2023-01-29T01:33:13;101032.59;;;2.10;86.17
15646;BME280;7922;43.622;1.476;2023-01-29T01:35:40;100946.78;;;1.58;86.05
15646;BME280;7922;43.622;1.476;2023-01-29T01:38:05;101034.31;;;2.05;86.09
15646;BME280;7922;43.622;1.476;2023-01-29T01:40:31;101049.22;;;2.15;86.50
15646;BME280;7922;43.622;1.476;2023-01-29T01:42:58;100948.53;;;1.56;86.65
15646;BME280;7922;43.622;1.476;2023-01-29T01:45:34;101030.75;;;1.98;86.74
15646;BME280;7922;43.622;1.476;2023-01-29T01:48:13;100987.84;;;1.73;86.36
15646;BME280;7922;43.622;1.476;2023-01-29T01:50:45;101059.59;;;2.07;86.67
15646;BME280;7922;43.622;1.476;2023-01-29T01:53:18;101087.66;;;2.28;86.89
15646;BME280;7922;43.622;1.476;2023-01-29T01:55:52;101086.00;;;2.36;86.41
15646;BME280;7922;43.622;1.476;2023-01-29T01:58:26;101101.72;;;2.41;86.16
15646;BME280;7922;43.622;1.476;2023-01-29T02:00:55;100940.56;;;1.44;86.20
15646;BME280;7922;43.622;1.476;2023-01-29T02:03:21;101023.72;;;1.89;86.28
15646;BME280;7922;43.622;1.476;2023-01-29T02:05:48;101089.44;;;2.29;86.52
15646;BME280;7922;43.622;1.476;2023-01-29T02:08:14;101058.72;;;2.10;86.46
15646;BME280;7922;43.622;1.476;2023-01-29T02:10:44;100973.84;;;1.63;86.11
15646;BME280;7922;43.622;1.476;2023-01-29T02:13:10;101083.28;;;2.27;86.67
15646;BME280;7922;43.622;1.476;2023-01-29T02:15:36;101028.97;;;1.96;86.17
15646;BME280;7922;43.622;1.476;2023-01-29T02:18:02;101040.38;;;2.01;86.05
15646;BME280;7922;43.622;1.476;2023-01-29T02:20:29;101037.75;;;2.02;86.51
15646;BME280;7922;43.622;1.476;2023-01-29T02:30:43;101106.91;;;2.39;85.94
15646;BME280;7922;43.622;1.476;2023-01-29T02:36:13;101105.19;;;2.38;85.98
15646;BME280;7922;43.622;1.476;2023-01-29T02:41:30;100975.50;;;1.57;85.71
15646;BME280;7922;43.622;1.476;2023-01-29T02:44:40;101108.63;;;2.36;86.11
15646;BME280;7922;43.622;1.476;2023-01-29T02:52:39;101082.31;;;2.17;86.18
15646;BME280;7922;43.622;1.476;2023-01-29T02:55:14;101120.00;;;2.36;86.30
15646;BME280;7922;43.622;1.476;2023-01-29T02:57:43;101095.34;;;2.13;86.53
15646;BME280;7922;43.622;1.476;2023-01-29T03:02:47;100958.78;;;1.39;86.21
15646;BME280;7922;43.622;1.476;2023-01-29T03:05:21;101083.13;;;2.10;86.01
15646;BME280;7922;43.622;1.476;2023-01-29T03:07:52;101054.19;;;1.90;86.25
15646;BME280;7922;43.622;1.476;2023-01-29T03:10:20;101130.44;;;2.39;86.53
15646;BME280;7922;43.622;1.476;2023-01-29T03:12:53;101097.22;;;2.28;86.54
15646;BME280;7922;43.622;1.476;2023-01-29T03:15:23;101098.00;;;2.14;85.98
15646;BME280;7922;43.622;1.476;2023-01-29T03:20:22;101011.34;;;1.73;86.38
15646;BME280;7922;43.622;1.476;2023-01-29T03:22:57;101086.53;;;2.02;86.45
15646;BME280;7922;43.622;1.476;2023-01-29T03:25:25;101000.81;;;1.65;86.68
15646;BME280;7922;43.622;1.476;2023-01-29T03:27:58;101003.38;;;1.59;85.91
15646;BME280;7922;43.622;1.476;2023-01-29T03:30:27;100985.00;;;1.50;85.55
15646;BME280;7922;43.622;1.476;2023-01-29T03:32:53;101031.41;;;1.77;86.02
15646;BME280;7922;43.622;1.476;2023-01-29T03:35:22;100933.31;;;1.18;85.71
15646;BME280;7922;43.622;1.476;2023-01-29T03:37:49;100984.19;;;1.53;85.97
15646;BME280;7922;43.622;1.476;2023-01-29T03:40:15;101137.38;;;2.34;85.86
15646;BME280;7922;43.622;1.476;2023-01-29T03:45:36;101092.63;;;2.02;85.86
15646;BME280;7922;43.622;1.476;2023-01-29T03:48:08;101142.66;;;2.37;86.17
15646;BME280;7922;43.622;1.476;2023-01-29T04:01:10;101154.84;;;2.37;85.65
15646;BME280;7922;43.622;1.476;2023-01-29T04:03:56;101066.38;;;1.90;85.78
15646;BME280;7922;43.622;1.476;2023-01-29T04:06:25;101150.50;;;2.39;85.14
15646;BME280;7922;43.622;1.476;2023-01-29T04:09:16;101064.56;;;1.84;85.13
15646;BME280;7922;43.622;1.476;2023-01-29T04:11:46;101088.25;;;2.00;85.39
15646;BME280;7922;43.622;1.476;2023-01-29T04:14:14;101113.59;;;2.10;85.06
15646;BME280;7922;43.622;1.476;2023-01-29T04:16:42;101125.81;;;2.09;85.40
15646;BME280;7922;43.622;1.476;2023-01-29T04:19:08;101111.78;;;2.03;85.06
15646;BME280;7922;43.622;1.476;2023-01-29T04:21:34;101131.09;;;2.15;85.32
15646;BME280;7922;43.622;1.476;2023-01-29T04:23:59;100997.94;;;1.39;85.10
15646;BME280;7922;43.622;1.476;2023-01-29T04:31:34;101165.28;;;2.35;85.04
15646;BME280;7922;43.622;1.476;2023-01-29T04:34:18;101139.91;;;2.22;84.94
15646;BME280;7922;43.622;1.476;2023-01-29T04:39:24;101116.25;;;2.11;84.98
15646;BME280;7922;43.622;1.476;2023-01-29T04:42:13;101166.19;;;2.39;85.31
15646;BME280;7922;43.622;1.476;2023-01-29T04:45:02;101043.44;;;1.63;84.60
15646;BME280;7922;43.622;1.476;2023-01-29T04:53:16;101107.31;;;1.91;84.63
15646;BME280;7922;43.622;1.476;2023-01-29T04:56:00;101128.38;;;2.06;85.19
15646;BME280;7922;43.622;1.476;2023-01-29T04:58:36;101006.66;;;1.41;85.41
15646;BME280;7922;43.622;1.476;2023-01-29T05:01:06;101126.69;;;2.08;85.09
15646;BME280;7922;43.622;1.476;2023-01-29T05:03:33;101110.97;;;2.07;84.83
15646;BME280;7922;43.622;1.476;2023-01-29T05:06:00;101153.00;;;2.27;84.74
15646;BME280;7922;43.622;1.476;2023-01-29T05:08:27;101049.50;;;1.57;84.87
15646;BME280;7922;43.622;1.476;2023-01-29T05:10:56;101035.44;;;1.48;84.89
15646;BME280;7922;43.622;1.476;2023-01-29T05:13:22;101152.84;;;2.13;85.05
15646;BME280;7922;43.622;1.476;2023-01-29T05:18:18;101160.75;;;2.19;85.18
15646;BME280;7922;43.622;1.476;2023-01-29T05:20:44;101180.97;;;2.34;84.78
15646;BME280;7922;43.622;1.476;2023-01-29T05:23:15;101031.97;;;1.49;84.49
15646;BME280;7922;43.622;1.476;2023-01-29T05:25:41;101073.25;;;1.79;84.38
15646;BME280;7922;43.622;1.476;2023-01-29T05:28:08;101106.44;;;1.89;84.50
15646;BME280;7922;43.622;1.476;2023-01-29T05:30:36;101116.84;;;1.86;84.74
15646;BME280;7922;43.622;1.476;2023-01-29T05:33:03;101068.63;;;1.56;84.92
15646;BME280;7922;43.622;1.476;2023-01-29T05:35:29;101098.44;;;1.77;84.64
15646;BME280;7922;43.622;1.476;2023-01-29T05:37:55;101143.22;;;2.07;84.68
15646;BME280;7922;43.622;1.476;2023-01-29T05:40:20;101163.34;;;2.14;84.96
15646;BME280;7922;43.622;1.476;2023-01-29T05:42:45;101012.53;;;1.22;84.96
15646;BME280;7922;43.622;1.476;2023-01-29T05:45:11;101212.34;;;2.34;85.10
15646;BME280;7922;43.622;1.476;2023-01-29T05:47:36;101079.91;;;1.55;84.65
15646;BME280;7922;43.622;1.476;2023-01-29T05:50:01;101195.63;;;2.20;84.58
15646;BME280;7922;43.622;1.476;2023-01-29T05:52:27;101189.47;;;2.14;84.81
15646;BME280;7922;43.622;1.476;2023-01-29T05:54:52;101154.38;;;1.92;85.01
15646;BME280;7922;43.622;1.476;2023-01-29T05:57:17;101171.84;;;1.97;84.46
15646;BME280;7922;43.622;1.476;2023-01-29T05:59:42;101121.09;;;1.78;84.51
15646;BME280;7922;43.622;1.476;2023-01-29T06:02:08;101175.38;;;2.03;84.70
15646;BME280;7922;43.622;1.476;2023-01-29T06:04:33;101093.00;;;1.57;84.48
15646;BME280;7922;43.622;1.476;2023-01-29T06:06:58;101122.69;;;1.66;84.75
15646;BME280;7922;43.622;1.476;2023-01-29T06:09:23;101178.88;;;2.02;84.83
15646;BME280;7922;43.622;1.476;2023-01-29T06:11:49;101184.19;;;2.10;84.55
15646;BME280;7922;43.622;1.476;2023-01-29T06:14:14;101161.41;;;1.97;84.72
15646;BME280;7922;43.622;1.476;2023-01-29T06:16:39;101154.34;;;1.91;84.53
15646;BME280;7922;43.622;1.476;2023-01-29T06:19:04;101067.59;;;1.42;84.78
15646;BME280;7922;43.622;1.476;2023-01-29T06:21:30;101201.69;;;2.15;84.59
15646;BME280;7922;43.622;1.476;2023-01-29T06:23:55;101100.81;;;1.54;84.46
15646;BME280;7922;43.622;1.476;2023-01-29T06:26:20;101175.28;;;1.96;84.86
15646;BME280;7922;43.622;1.476;2023-01-29T06:28:49;101119.25;;;1.71;84.62
15646;BME280;7922;43.622;1.476;2023-01-29T06:31:14;101114.06;;;1.72;84.24
15646;BME280;7922;43.622;1.476;2023-01-29T06:33:40;101067.56;;;1.39;84.47
15646;BME280;7922;43.622;1.476;2023-01-29T06:36:05;101154.31;;;1.88;84.59
15646;BME280;7922;43.622;1.476;2023-01-29T06:38:31;101190.25;;;2.07;84.50
15646;BME280;7922;43.622;1.476;2023-01-29T06:40:56;101101.66;;;1.53;84.15
15646;BME280;7922;43.622;1.476;2023-01-29T06:43:22;101208.66;;;2.16;84.82
15646;BME280;7922;43.622;1.476;2023-01-29T06:45:49;101220.94;;;2.22;84.95
15646;BME280;7922;43.622;1.476;2023-01-29T06:48:15;101232.28;;;2.26;84.47
15646;BME280;7922;43.622;1.476;2023-01-29T06:50:40;101193.66;;;2.02;84.35
15646;BME280;7922;43.622;1.476;2023-01-29T06:53:06;101162.94;;;1.81;85.23
15646;BME280;7922;43.622;1.476;2023-01-29T06:55:31;101076.06;;;1.26;85.02
15646;BME280;7922;43.622;1.476;2023-01-29T06:57:56;101164.66;;;1.79;85.09
15646;BME280;7922;43.622;1.476;2023-01-29T07:00:21;101062.94;;;1.19;84.81
15646;BME280;7922;43.622;1.476;2023-01-29T07:02:50;101097.16;;;1.41;85.46
15646;BME280;7922;43.622;1.476;2023-01-29T07:05:15;101074.41;;;1.31;85.05
15646;BME280;7922;43.622;1.476;2023-01-29T07:07:40;101109.41;;;1.47;84.74
15646;BME280;7922;43.622;1.476;2023-01-29T07:10:06;101126.03;;;1.53;85.00
15646;BME280;7922;43.622;1.476;2023-01-29T07:12:32;101192.53;;;1.80;85.17
15646;BME280;7922;43.622;1.476;2023-01-29T07:14:57;101136.50;;;1.55;84.83
15646;BME280;7922;43.622;1.476;2023-01-29T07:17:22;101241.72;;;2.13;85.00
15646;BME280;7922;43.622;1.476;2023-01-29T07:19:47;101210.13;;;1.95;84.96
15646;BME280;7922;43.622;1.476;2023-01-29T07:22:13;101223.19;;;1.93;85.46
15646;BME280;7922;43.622;1.476;2023-01-29T07:24:38;101265.22;;;2.13;85.15
15646;BME280;7922;43.622;1.476;2023-01-29T07:27:03;101117.97;;;1.36;84.88
15646;BME280;7922;43.622;1.476;2023-01-29T07:29:28;101033.78;;;0.86;84.94
15646;BME280;7922;43.622;1.476;2023-01-29T07:31:54;101185.56;;;1.79;85.22
15646;BME280;7922;43.622;1.476;2023-01-29T07:34:19;101265.28;;;2.17;85.34
15646;BME280;7922;43.622;1.476;2023-01-29T07:36:44;101243.34;;;2.05;85.25
15646;BME280;7922;43.622;1.476;2023-01-29T07:39:10;101145.88;;;1.40;85.55
15646;BME280;7922;43.622;1.476;2023-01-29T07:41:35;101231.84;;;1.89;85.74
15646;BME280;7922;43.622;1.476;2023-01-29T07:44:00;101177.41;;;1.56;85.58
15646;BME280;7922;43.622;1.476;2023-01-29T07:46:25;101130.94;;;1.30;85.71
15646;BME280;7922;43.622;1.476;2023-01-29T07:48:51;101226.59;;;1.87;85.61
15646;BME280;7922;43.622;1.476;2023-01-29T07:51:16;101124.78;;;1.24;85.84
15646;BME280;7922;43.622;1.476;2023-01-29T07:53:41;101289.81;;;2.26;85.70
15646;BME280;7922;43.622;1.476;2023-01-29T07:56:07;101134.47;;;1.32;85.28
15646;BME280;7922;43.622;1.476;2023-01-29T07:58:32;101276.41;;;2.03;85.89
15646;BME280;7922;43.622;1.476;2023-01-29T08:00:57;101205.34;;;1.63;85.59
15646;BME280;7922;43.622;1.476;2023-01-29T08:03:22;101156.31;;;1.39;85.52
15646;BME280;7922;43.622;1.476;2023-01-29T08:05:48;101271.97;;;1.96;85.63
15646;BME280;7922;43.622;1.476;2023-01-29T08:08:13;101240.47;;;1.82;85.76
15646;BME280;7922;43.622;1.476;2023-01-29T08:10:39;101280.06;;;2.14;85.19
15646;BME280;7922;43.622;1.476;2023-01-29T08:13:05;101323.84;;;2.32;85.48
15646;BME280;7922;43.622;1.476;2023-01-29T08:15:31;101171.25;;;1.52;84.93
15646;BME280;7922;43.622;1.476;2023-01-29T08:17:56;101341.63;;;2.59;85.18
15646;BME280;7922;43.622;1.476;2023-01-29T08:20:22;101280.19;;;2.22;85.21
15646;BME280;7922;43.622;1.476;2023-01-29T08:22:47;101274.88;;;2.15;85.22
15646;BME280;7922;43.622;1.476;2023-01-29T08:25:13;101256.47;;;2.09;85.17
15646;BME280;7922;43.622;1.476;2023-01-29T08:27:40;101321.47;;;2.50;84.62
15646;BME280;7922;43.622;1.476;2023-01-29T08:30:05;101183.81;;;1.79;84.75
15646;BME280;7922;43.622;1.476;2023-01-29T08:32:32;101289.94;;;2.39;84.70
15646;BME280;7922;43.622;1.476;2023-01-29T08:34:57;101300.34;;;2.33;84.77
15646;BME280;7922;43.622;1.476;2023-01-29T08:37:22;101197.84;;;1.87;84.57
15646;BME280;7922;43.622;1.476;2023-01-29T08:39:48;101196.28;;;2.00;84.59
15646;BME280;7922;43.622;1.476;2023-01-29T08:42:13;101313.75;;;2.59;84.28
15646;BME280;7922;43.622;1.476;2023-01-29T08:44:38;101320.69;;;2.57;84.06
15646;BME280;7922;43.622;1.476;2023-01-29T08:47:04;101120.72;;;1.47;83.79
15646;BME280;7922;43.622;1.476;2023-01-29T08:49:29;101179.50;;;1.84;84.13
15646;BME280;7922;43.622;1.476;2023-01-29T08:51:55;101196.31;;;2.05;83.71
15646;BME280;7922;43.622;1.476;2023-01-29T08:54:20;101210.44;;;2.21;83.45
15646;BME280;7922;43.622;1.476;2023-01-29T08:56:45;101191.22;;;2.15;82.78
15646;BME280;7922;43.622;1.476;2023-01-29T08:59:10;101220.16;;;2.31;82.63
15646;BME280;7922;43.622;1.476;2023-01-29T09:01:36;101322.84;;;2.95;83.29
15646;BME280;7922;43.622;1.476;2023-01-29T09:04:01;101342.88;;;2.93;82.88
15646;BME280;7922;43.622;1.476;2023-01-29T09:06:26;101335.97;;;3.01;83.17
15646;BME280;7922;43.622;1.476;2023-01-29T09:08:52;101232.47;;;2.42;82.64
15646;BME280;7922;43.622;1.476;2023-01-29T09:11:17;101279.06;;;2.79;82.36
15646;BME280;7922;43.622;1.476;2023-01-29T09:13:42;101328.19;;;3.07;82.18
15646;BME280;7922;43.622;1.476;2023-01-29T09:16:08;101309.13;;;3.22;81.48
15646;BME280;7922;43.622;1.476;2023-01-29T09:18:33;101309.13;;;3.22;81.03
15646;BME280;7922;43.622;1.476;2023-01-29T09:20:59;101197.06;;;2.78;81.23
15646;BME280;7922;43.622;1.476;2023-01-29T09:23:24;101352.41;;;3.84;79.84
15646;BME280;7922;43.622;1.476;2023-01-29T09:25:49;101321.75;;;3.69;79.88
15646;BME280;7922;43.622;1.476;2023-01-29T09:28:15;101294.44;;;3.41;79.60
15646;BME280;7922;43.622;1.476;2023-01-29T09:30:40;101327.19;;;3.97;79.77
15646;BME280;7922;43.622;1.476;2023-01-29T09:33:06;101344.06;;;4.43;77.78
15646;BME280;7922;43.622;1.476;2023-01-29T09:35:32;101234.28;;;3.52;77.78
15646;BME280;7922;43.622;1.476;2023-01-29T09:37:57;101311.44;;;3.92;77.09
15646;BME280;7922;43.622;1.476;2023-01-29T09:40:25;101292.28;;;4.10;77.35
15646;BME280;7922;43.622;1.476;2023-01-29T09:43:00;101309.84;;;4.28;76.53
15646;BME280;7922;43.622;1.476;2023-01-29T09:45:27;101280.66;;;3.60;76.88
15646;BME280;7922;43.622;1.476;2023-01-29T09:47:59;101376.25;;;4.21;75.87
15646;BME280;7922;43.622;1.476;2023-01-29T09:50:35;101335.13;;;4.07;76.05
15646;BME280;7922;43.622;1.476;2023-01-29T09:53:14;101368.47;;;4.33;75.16
15646;BME280;7922;43.622;1.476;2023-01-29T09:55:58;101250.69;;;3.25;76.20
15646;BME280;7922;43.622;1.476;2023-01-29T09:58:31;101332.25;;;3.71;76.55
15646;BME280;7922;43.622;1.476;2023-01-29T10:09:24;101375.72;;;4.94;74.04
15646;BME280;7922;43.622;1.476;2023-01-29T10:12:18;101368.59;;;4.57;73.68
15646;BME280;7922;43.622;1.476;2023-01-29T10:23:15;101401.16;;;5.12;72.38
15646;BME280;7922;43.622;1.476;2023-01-29T10:25:44;101361.78;;;5.22;71.48
15646;BME280;7922;43.622;1.476;2023-01-29T10:28:18;101381.00;;;5.01;71.54
15646;BME280;7922;43.622;1.476;2023-01-29T10:30:48;101386.25;;;4.98;71.62
15646;BME280;7922;43.622;1.476;2023-01-29T10:33:21;101296.75;;;4.29;72.23
15646;BME280;7922;43.622;1.476;2023-01-29T10:35:53;101359.00;;;4.67;72.29
15646;BME280;7922;43.622;1.476;2023-01-29T10:38:33;101246.88;;;4.20;72.22
15646;BME280;7922;43.622;1.476;2023-01-29T10:41:24;101232.91;;;4.20;70.69
15646;BME280;7922;43.622;1.476;2023-01-29T11:00:38;101329.34;;;5.00;69.68
15646;BME280;7922;43.622;1.476;2023-01-29T11:03:22;101242.69;;;5.08;68.32
15646;BME280;7922;43.622;1.476;2023-01-29T11:05:59;101274.22;;;5.10;68.82
15646;BME280;7922;43.622;1.476;2023-01-29T11:08:30;101370.59;;;5.57;69.00
15646;BME280;7922;43.622;1.476;2023-01-29T11:13:40;101371.44;;;5.48;69.23
15646;BME280;7922;43.622;1.476;2023-01-29T11:16:07;101353.03;;;5.20;70.81
15646;BME280;7922;43.622;1.476;2023-01-29T11:18:52;101241.81;;;4.72;70.25
15646;BME280;7922;43.622;1.476;2023-01-29T11:21:17;101230.44;;;4.84;70.21
15646;BME280;7922;43.622;1.476;2023-01-29T11:23:43;101294.34;;;5.47;69.41
15646;BME280;7922;43.622;1.476;2023-01-29T11:26:11;101332.03;;;5.54;69.45
15646;BME280;7922;43.622;1.476;2023-01-29T11:28:47;101222.56;;;5.16;68.66
15646;BME280;7922;43.622;1.476;2023-01-29T11:31:35;101177.91;;;4.72;69.04
15646;BME280;7922;43.622;1.476;2023-01-29T11:34:27;101332.91;;;5.77;69.39
15646;BME280;7922;43.622;1.476;2023-01-29T11:37:18;101328.50;;;5.98;68.28
15646;BME280;7922;43.622;1.476;2023-01-29T11:39:44;101333.78;;;5.75;69.45
15646;BME280;7922;43.622;1.476;2023-01-29T11:42:18;101329.41;;;5.97;68.19
15646;BME280;7922;43.622;1.476;2023-01-29T11:44:44;101201.53;;;5.30;68.38
15646;BME280;7922;43.622;1.476;2023-01-29T11:47:15;101277.72;;;5.54;68.70
15646;BME280;7922;43.622;1.476;2023-01-29T11:49:51;101318.84;;;5.06;71.50
15646;BME280;7922;43.622;1.476;2023-01-29T11:52:19;101261.09;;;5.10;69.31
15646;BME280;7922;43.622;1.476;2023-01-29T11:54:50;101197.13;;;4.57;70.84
15646;BME280;7922;43.622;1.476;2023-01-29T11:59:49;101297.00;;;5.40;69.13
15646;BME280;7922;43.622;1.476;2023-01-29T12:02:29;101255.81;;;5.19;69.62
15646;BME280;7922;43.622;1.476;2023-01-29T12:05:03;101184.94;;;4.65;69.60
15646;BME280;7922;43.622;1.476;2023-01-29T12:07:30;101263.72;;;5.52;68.46
15646;BME280;7922;43.622;1.476;2023-01-29T12:09:58;101180.56;;;5.19;65.42
15646;BME280;7922;43.622;1.476;2023-01-29T12:12:41;101256.69;;;5.54;65.69
15646;BME280;7922;43.622;1.476;2023-01-29T12:15:20;101269.81;;;5.68;65.77
15646;BME280;7922;43.622;1.476;2023-01-29T12:18:34;101298.66;;;6.16;64.84
15646;BME280;7922;43.622;1.476;2023-01-29T12:21:11;101097.41;;;4.78;64.86
15646;BME280;7922;43.622;1.476;2023-01-29T12:24:02;101281.19;;;5.99;65.14
15646;BME280;7922;43.622;1.476;2023-01-29T12:26:35;101154.22;;;5.47;63.81
15646;BME280;7922;43.622;1.476;2023-01-29T12:29:38;101299.59;;;5.96;62.45
15646;BME280;7922;43.622;1.476;2023-01-29T12:32:33;101290.81;;;5.90;62.50
15646;BME280;7922;43.622;1.476;2023-01-29T12:37:43;101291.63;;;6.21;61.12
15646;BME280;7922;43.622;1.476;2023-01-29T12:40:19;101233.03;;;5.54;63.04
15646;BME280;7922;43.622;1.476;2023-01-29T12:42:50;101206.81;;;5.16;64.52
15646;BME280;7922;43.622;1.476;2023-01-29T12:45:20;101247.00;;;5.79;63.47
15646;BME280;7922;43.622;1.476;2023-01-29T12:47:49;101275.94;;;5.58;64.24
15646;BME280;7922;43.622;1.476;2023-01-29T12:52:46;101275.03;;;5.84;63.09
15646;BME280;7922;43.622;1.476;2023-01-29T12:55:19;101233.91;;;5.70;62.03
15646;BME280;7922;43.622;1.476;2023-01-29T12:57:56;101144.66;;;5.14;60.46
15646;BME280;7922;43.622;1.476;2023-01-29T13:00:28;101288.19;;;6.03;59.77
15646;BME280;7922;43.622;1.476;2023-01-29T13:03:25;101200.66;;;5.26;60.34
15646;BME280;7922;43.622;1.476;2023-01-29T13:05:59;101239.16;;;5.47;59.63
15646;BME280;7922;43.622;1.476;2023-01-29T13:08:31;101280.31;;;5.62;62.43
15646;BME280;7922;43.622;1.476;2023-01-29T13:11:01;101286.50;;;5.46;64.23
15646;BME280;7922;43.622;1.476;2023-01-29T13:13:42;101244.44;;;5.32;64.07
15646;BME280;7922;43.622;1.476;2023-01-29T13:16:11;101125.41;;;4.53;63.96
15646;BME280;7922;43.622;1.476;2023-01-29T13:18:45;101277.69;;;5.71;64.24
15646;BME280;7922;43.622;1.476;2023-01-29T13:21:20;101251.38;;;5.94;63.45
15646;BME280;7922;43.622;1.476;2023-01-29T13:23:53;101256.66;;;5.65;62.85
15646;BME280;7922;43.622;1.476;2023-01-29T13:26:21;101255.81;;;5.49;62.66
15646;BME280;7922;43.622;1.476;2023-01-29T13:28:47;101282.97;;;5.54;61.91
15646;BME280;7922;43.622;1.476;2023-01-29T13:31:37;101270.69;;;5.58;62.54
15646;BME280;7922;43.622;1.476;2023-01-29T13:34:24;101273.31;;;5.63;60.26
15646;BME280;7922;43.622;1.476;2023-01-29T13:36:51;101233.94;;;5.43;60.57
15646;BME280;7922;43.622;1.476;2023-01-29T13:41:54;101246.19;;;5.41;60.96
15646;BME280;7922;43.622;1.476;2023-01-29T13:46:59;101271.59;;;5.49;59.96
15646;BME280;7922;43.622;1.476;2023-01-29T13:51:52;101118.44;;;4.80;60.45
15646;BME280;7922;43.622;1.476;2023-01-29T13:54:22;101198.91;;;5.25;61.77
15646;BME280;7922;43.622;1.476;2023-01-29T14:02:20;101228.69;;;5.46;62.56
15646;BME280;7922;43.622;1.476;2023-01-29T14:04:45;101177.06;;;5.16;62.36
15646;BME280;7922;43.622;1.476;2023-01-29T14:10:15;101238.31;;;5.38;62.19
15646;BME280;7922;43.622;1.476;2023-01-29T14:12:41;101253.19;;;5.60;62.41
15646;BME280;7922;43.622;1.476;2023-01-29T14:18:05;101225.16;;;5.30;62.35
15646;BME280;7922;43.622;1.476;2023-01-29T14:20:49;101268.06;;;5.67;61.55
15646;BME280;7922;43.622;1.476;2023-01-29T14:25:57;101135.91;;;4.72;62.38
15646;BME280;7922;43.622;1.476;2023-01-29T14:28:25;101169.16;;;5.08;61.38
15646;BME280;7922;43.622;1.476;2023-01-29T14:30:52;101135.06;;;4.80;61.06
15646;BME280;7922;43.622;1.476;2023-01-29T14:33:47;101263.69;;;5.63;62.36
15646;BME280;7922;43.622;1.476;2023-01-29T14:36:14;101271.59;;;5.52;63.99
15646;BME280;7922;43.622;1.476;2023-01-29T14:38:45;101240.94;;;5.18;63.97
15646;BME280;7922;43.622;1.476;2023-01-29T14:41:28;101219.06;;;4.97;64.60
15646;BME280;7922;43.622;1.476;2023-01-29T14:46:59;101233.94;;;4.98;63.03
15646;BME280;7922;43.622;1.476;2023-01-29T14:49:50;101273.34;;;5.21;62.97
15646;BME280;7922;43.622;1.476;2023-01-29T14:52:17;101237.44;;;4.97;63.60
15646;BME280;7922;43.622;1.476;2023-01-29T14:54:46;101227.78;;;4.78;63.72
15646;BME280;7922;43.622;1.476;2023-01-29T14:57:15;101260.19;;;4.92;64.06
15646;BME280;7922;43.622;1.476;2023-01-29T14:59:57;101163.03;;;4.45;64.23
15646;BME280;7922;43.622;1.476;2023-01-29T15:02:27;101220.84;;;5.01;64.43
15646;BME280;7922;43.622;1.476;2023-01-29T15:04:56;101236.56;;;5.04;63.95
15646;BME280;7922;43.622;1.476;2023-01-29T15:07:29;101243.59;;;5.21;64.04
15646;BME280;7922;43.622;1.476;2023-01-29T15:10:21;101284.72;;;5.28;64.41
15646;BME280;7922;43.622;1.476;2023-01-29T15:13:02;101214.69;;;4.86;64.90
15646;BME280;7922;43.622;1.476;2023-01-29T15:15:41;101156.00;;;4.34;64.53
15646;BME280;7922;43.622;1.476;2023-01-29T15:18:14;101285.59;;;5.12;65.38
15646;BME280;7922;43.622;1.476;2023-01-29T15:20:41;101152.44;;;4.06;64.44
15646;BME280;7922;43.622;1.476;2023-01-29T15:23:28;101191.03;;;4.52;64.43
15646;BME280;7922;43.622;1.476;2023-01-29T15:25:56;101258.41;;;4.71;63.36